This is the latest recevied weather packets stored in our database for station/object YO7ZRO-13. If no packets are shown the sender has not sent any weather packets the latest 10 day(s).
| Time | Temp. | Humidity | Pressure | Rain* | Wind** | Luminosity | Snow |
|---|---|---|---|---|---|---|---|
| 1788079363 | 30.56° C | 31% | 1018.1 hPa | - | - | - | - |
| 1788079303 | 30.56° C | 32% | 1018.1 hPa | - | - | - | - |
| 1788079243 | 30.56° C | 32% | 1018.1 hPa | - | - | - | - |
| 1788079182 | 29.44° C | 34% | 1018.1 hPa | - | - | - | - |
| 1788079124 | 29.44° C | 34% | 1018.1 hPa | - | - | - | - |
| 1788079062 | 28.89° C | 35% | 1018.2 hPa | - | - | - | - |
| 1788079002 | 28.89° C | 35% | 1018.2 hPa | - | - | - | - |
| 1788078942 | 30° C | 33% | 1018.2 hPa | - | - | - | - |
| 1788078883 | 30° C | 33% | 1018.2 hPa | - | - | - | - |
| 1788078823 | 29.44° C | 33% | 1018.1 hPa | - | - | - | - |
| 1788078763 | 29.44° C | 33% | 1018.1 hPa | - | - | - | - |
| 1788078703 | 28.33° C | 35% | 1018.2 hPa | - | - | - | - |
| 1788078642 | 28.33° C | 35% | 1018.2 hPa | - | - | - | - |
| 1788078583 | 28.89° C | 34% | 1018.2 hPa | - | - | - | - |
| 1788078523 | 28.89° C | 34% | 1018.2 hPa | - | - | - | - |
| 1788078463 | 28.33° C | 35% | 1018.2 hPa | - | - | - | - |
| 1788078402 | 28.33° C | 35% | 1018.2 hPa | - | - | - | - |
| 1788078343 | 27.78° C | 38% | 1018.2 hPa | - | - | - | - |
| 1788078284 | 27.78° C | 38% | 1018.2 hPa | - | - | - | - |
| 1788078222 | 27.78° C | 36% | 1018.3 hPa | - | - | - | - |
| 1788078162 | 27.78° C | 36% | 1018.3 hPa | - | - | - | - |
| 1788078103 | 28.33° C | 36% | 1018.3 hPa | - | - | - | - |
| 1788078043 | 28.33° C | 36% | 1018.3 hPa | - | - | - | - |
| 1788077983 | 28.33° C | 37% | 1018.3 hPa | - | - | - | - |
| 1788077923 | 28.33° C | 37% | 1018.3 hPa | - | - | - | - |
* Rain since midnight (hover to see other rain measurements)
** Current wind speed in m/s (hover to see current wind gust speed)